Time;durP1;ratioP1;P1;durP2;ratioP2;P2;SDS_P1;SDS_P2;PMS_P1;PMS_P2;Temp;Humidity;BMP_temperature;BMP_pressure;BME280_temperature;BME280_humidity;BME280_pressure;Samples;Min_cycle;Max_cycle;Signal;HPM_P1;HPM_P2
2023/04/06 00:00:15;;;;;;;0.60;0.60;;;;;;;2.46;53.75;97042.00;29394;227;64013;-62
2023/04/06 00:00:48;;;;;;;0.60;0.60;;;;;;;2.46;53.76;97039.31;29395;232;63017;-62
2023/04/06 00:01:19;;;;;;;0.55;0.55;;;;;;;2.48;53.74;97031.03;29394;242;64013;-61
2023/04/06 00:01:51;;;;;;;0.60;0.60;;;;;;;2.48;53.84;97039.91;29394;216;64008;-62
2023/04/06 00:02:23;;;;;;;0.60;0.60;;;;;;;2.48;53.80;97026.50;29395;228;63009;-61
2023/04/06 00:02:54;;;;;;;0.60;0.60;;;;;;;2.49;53.69;97033.50;29395;224;63005;-62
2023/04/06 00:03:28;;;;;;;0.60;0.60;;;;;;;2.48;54.01;97029.19;29395;233;63009;-61
2023/04/06 00:03:59;;;;;;;0.60;0.60;;;;;;;2.47;53.82;97032.91;29395;228;63005;-61
2023/04/06 00:04:31;;;;;;;1.50;1.50;;;;;;;2.44;54.07;97036.06;29395;221;63016;-61
2023/04/06 00:05:03;;;;;;;0.60;0.60;;;;;;;2.43;54.00;97031.75;29394;209;64009;-62
2023/04/06 00:05:34;;;;;;;0.60;0.60;;;;;;;2.42;53.92;97030.16;29395;241;63009;-62
2023/04/06 00:06:06;;;;;;;0.60;0.60;;;;;;;2.39;53.92;97027.94;29395;239;63004;-62
2023/04/06 00:06:37;;;;;;;0.60;0.60;;;;;;;2.37;53.95;97030.06;29395;235;63009;-62
2023/04/06 00:07:09;;;;;;;0.60;0.60;;;;;;;2.34;54.31;97041.22;29395;215;63004;-62
2023/04/06 00:07:40;;;;;;;0.60;0.60;;;;;;;2.33;54.48;97042.28;29395;226;63009;-61
2023/04/06 00:08:11;;;;;;;0.60;0.60;;;;;;;2.27;54.51;97038.69;29394;234;64009;-62
2023/04/06 00:08:44;;;;;;;0.60;0.60;;;;;;;2.24;54.86;97038.34;29395;239;63008;-62
2023/04/06 00:09:15;;;;;;;0.50;0.50;;;;;;;2.20;54.57;97031.81;29373;217;63004;-62
2023/04/06 00:09:47;;;;;;;0.60;0.60;;;;;;;2.17;54.49;97032.28;29394;279;64014;-60
2023/04/06 00:10:18;;;;;;;0.60;0.60;;;;;;;2.15;54.68;97031.72;29395;257;63005;-61
2023/04/06 00:10:50;;;;;;;0.60;0.60;;;;;;;2.13;54.70;97036.50;29395;198;63009;-62
2023/04/06 00:11:22;;;;;;;0.60;0.60;;;;;;;2.10;54.53;97023.56;29395;242;63005;-60
2023/04/06 00:11:53;;;;;;;0.60;0.60;;;;;;;2.10;54.65;97028.94;29395;211;63009;-62
2023/04/06 00:12:24;;;;;;;0.60;0.60;;;;;;;2.08;54.96;97039.09;29394;212;64009;-62
2023/04/06 00:12:57;;;;;;;0.60;0.60;;;;;;;2.04;55.21;97035.25;29395;203;63009;-62
2023/04/06 00:13:28;;;;;;;0.60;0.60;;;;;;;1.98;55.37;97035.13;29395;208;63005;-62
2023/04/06 00:14:00;;;;;;;0.60;0.60;;;;;;;1.95;55.72;97035.59;29395;237;63009;-62
2023/04/06 00:14:31;;;;;;;0.60;0.60;;;;;;;1.93;55.53;97040.38;29395;202;63004;-62
2023/04/06 00:15:05;;;;;;;0.60;0.60;;;;;;;1.90;55.99;97032.81;29395;225;63009;-62
2023/04/06 00:15:36;;;;;;;0.70;0.70;;;;;;;1.87;55.66;97035.13;29394;230;64009;-61
2023/04/06 00:16:08;;;;;;;0.60;0.60;;;;;;;1.85;55.74;97037.22;29373;202;63009;-61
2023/04/06 00:16:40;;;;;;;0.60;0.60;;;;;;;1.80;56.11;97037.09;29373;291;63004;-61
2023/04/06 00:17:11;;;;;;;0.60;0.60;;;;;;;1.79;56.43;97036.28;29373;218;63009;-62
2023/04/06 00:17:42;;;;;;;0.57;0.57;;;;;;;1.78;55.97;97042.69;29371;195;64009;-61
2023/04/06 00:18:15;;;;;;;0.60;0.60;;;;;;;1.76;55.79;97039.44;29373;321;63009;-61
2023/04/06 00:18:47;;;;;;;0.60;0.60;;;;;;;1.76;56.08;97036.75;29373;327;63005;-61
2023/04/06 00:19:18;;;;;;;0.60;0.60;;;;;;;1.75;56.12;97045.84;29373;202;63009;-62
2023/04/06 00:19:49;;;;;;;0.60;0.60;;;;;;;1.74;55.82;97046.88;29373;258;63005;-61
2023/04/06 00:20:20;;;;;;;0.60;0.60;;;;;;;1.73;56.05;97042.59;29395;218;63009;-63
2023/04/06 00:20:52;;;;;;;0.60;0.60;;;;;;;1.72;55.83;97035.63;29371;298;64009;-64
2023/04/06 00:21:23;;;;;;;0.60;0.60;;;;;;;1.72;55.79;97046.31;29373;216;63014;-63
2023/04/06 00:21:54;;;;;;;0.60;0.60;;;;;;;1.74;55.71;97032.69;29373;200;63004;-61
2023/04/06 00:22:26;;;;;;;3.28;3.17;;;;;;;1.74;55.74;97033.50;29373;227;63009;-63
2023/04/06 00:22:57;;;;;;;0.60;0.60;;;;;;;1.74;55.70;97036.19;29373;230;63004;-61
2023/04/06 00:23:28;;;;;;;0.60;0.60;;;;;;;1.74;56.46;97032.69;29395;335;63008;-62
2023/04/06 00:23:59;;;;;;;0.60;0.60;;;;;;;1.71;56.26;97034.00;29373;245;63004;-62
2023/04/06 00:24:31;;;;;;;4.12;3.33;;;;;;;1.70;56.04;97035.03;29373;229;63020;-62
2023/04/06 00:25:02;;;;;;;0.60;0.60;;;;;;;1.70;56.01;97036.91;29373;286;63005;-62
2023/04/06 00:25:34;;;;;;;0.95;0.95;;;;;;;1.70;56.51;97037.72;29373;200;63009;-62
2023/04/06 00:26:05;;;;;;;0.60;0.60;;;;;;;1.67;56.53;97039.00;29371;297;64009;-62
2023/04/06 00:26:36;;;;;;;0.60;0.60;;;;;;;1.66;56.96;97041.91;29395;255;63009;-62
2023/04/06 00:27:08;;;;;;;0.60;0.60;;;;;;;1.66;56.62;97039.22;29373;251;63005;-62
2023/04/06 00:27:39;;;;;;;0.60;0.60;;;;;;;1.64;56.59;97038.63;29395;232;63013;-62
2023/04/06 00:28:10;;;;;;;0.60;0.60;;;;;;;1.63;56.76;97042.34;29395;304;63004;-62
2023/04/06 00:28:41;;;;;;;0.60;0.60;;;;;;;1.62;56.79;97041.53;29395;275;63009;-63
2023/04/06 00:29:12;;;;;;;0.60;0.60;;;;;;;1.61;56.28;97031.09;29395;223;63004;-61
2023/04/06 00:29:45;;;;;;;3.47;3.33;;;;;;;1.62;56.55;97030.03;29395;266;63009;-61
2023/04/06 00:30:16;;;;;;;0.70;0.70;;;;;;;1.62;56.45;97038.06;29373;205;63004;-62
2023/04/06 00:30:47;;;;;;;0.60;0.60;;;;;;;1.63;56.44;97031.66;29395;342;63008;-62
2023/04/06 00:31:19;;;;;;;0.60;0.60;;;;;;;1.61;56.57;97033.75;29394;212;64009;-63
2023/04/06 00:31:50;;;;;;;0.60;0.60;;;;;;;1.62;56.48;97032.72;29395;219;63009;-62
2023/04/06 00:32:21;;;;;;;0.60;0.60;;;;;;;1.64;56.14;97033.28;29395;256;63005;-62
2023/04/06 00:32:52;;;;;;;0.60;0.60;;;;;;;1.65;56.27;97046.44;29373;267;63009;-62
2023/04/06 00:33:24;;;;;;;0.60;0.60;;;;;;;1.66;56.17;97037.38;29371;231;64009;-62
2023/04/06 00:33:55;;;;;;;0.60;0.60;;;;;;;1.68;56.34;97034.47;29373;324;63009;-62
2023/04/06 00:34:27;;;;;;;0.60;0.60;;;;;;;1.70;56.13;97035.03;29373;296;63005;-62
2023/04/06 00:34:58;;;;;;;0.60;0.60;;;;;;;1.72;55.85;97035.63;29373;329;63009;-62
2023/04/06 00:35:30;;;;;;;0.60;0.60;;;;;;;1.74;55.77;97032.69;29373;226;63004;-61
2023/04/06 00:36:01;;;;;;;0.70;0.70;;;;;;;1.74;55.97;97030.81;29373;199;63009;-63
2023/04/06 00:36:33;;;;;;;0.60;0.60;;;;;;;1.75;55.67;97024.44;29373;256;63000;-62
2023/04/06 00:37:04;;;;;;;0.60;0.60;;;;;;;1.77;55.62;97033.03;29371;219;64013;-61
2023/04/06 00:37:35;;;;;;;0.60;0.60;;;;;;;1.77;55.64;97021.53;29395;271;63009;-61
2023/04/06 00:38:10;;;;;;;0.60;0.60;;;;;;;1.78;55.69;97034.66;29373;205;63015;-62
2023/04/06 00:38:41;;;;;;;0.60;0.60;;;;;;;1.79;55.56;97033.63;29373;264;63004;-61
2023/04/06 00:39:13;;;;;;;0.60;0.60;;;;;;;1.79;55.53;97028.28;29373;250;63009;-61
2023/04/06 00:39:44;;;;;;;0.60;0.60;;;;;;;1.79;55.43;97030.94;29373;240;63005;-62
2023/04/06 00:40:16;;;;;;;0.60;0.60;;;;;;;1.80;55.82;97026.41;29373;216;63009;-62
2023/04/06 00:40:48;;;;;;;0.60;0.60;;;;;;;1.78;55.84;97023.97;29395;197;63008;-61
2023/04/06 00:41:20;;;;;;;0.60;0.60;;;;;;;1.78;55.89;97023.97;29373;233;63009;-62
2023/04/06 00:41:53;;;;;;;0.60;0.60;;;;;;;1.78;55.68;97029.31;29373;244;63005;-62
2023/04/06 00:42:27;;;;;;;0.60;0.60;;;;;;;1.77;55.55;97022.34;29371;249;64013;-62
2023/04/06 00:42:59;;;;;;;0.60;0.60;;;;;;;1.79;55.60;97022.09;29373;196;63003;-62
2023/04/06 00:43:31;;;;;;;0.60;0.60;;;;;;;1.79;55.66;97022.91;29373;325;63009;-62
2023/04/06 00:44:03;;;;;;;0.60;0.60;;;;;;;1.80;55.42;97016.53;29373;199;63004;-61
2023/04/06 00:44:34;;;;;;;0.60;0.60;;;;;;;1.82;55.68;97027.00;29373;231;63009;-62
2023/04/06 00:45:06;;;;;;;0.60;0.60;;;;;;;1.83;55.52;97025.94;29373;253;63004;-61
2023/04/06 00:45:39;;;;;;;0.60;0.60;;;;;;;1.79;55.51;97014.06;29394;240;64013;-62
2023/04/06 00:46:10;;;;;;;0.60;0.60;;;;;;;1.83;55.42;97023.25;29395;208;63004;-62
2023/04/06 00:46:42;;;;;;;0.60;0.60;;;;;;;1.84;55.43;97017.69;29373;252;63009;-60
2023/04/06 00:47:13;;;;;;;0.60;0.60;;;;;;;1.83;55.61;97021.41;29395;198;63005;-62
2023/04/06 00:47:44;;;;;;;0.60;0.60;;;;;;;1.83;55.35;97016.06;29395;215;63009;-61
2023/04/06 00:48:17;;;;;;;0.60;0.60;;;;;;;1.84;55.39;97017.69;29373;269;63005;-60
2023/04/06 00:48:48;;;;;;;0.60;0.60;;;;;;;1.85;55.49;97016.62;29373;234;63009;-61
2023/04/06 00:49:20;;;;;;;0.60;0.60;;;;;;;1.85;55.32;97024.66;29395;254;63005;-64
2023/04/06 00:49:52;;;;;;;0.60;0.60;;;;;;;1.85;55.34;97019.31;29371;262;64013;-62
2023/04/06 00:50:24;;;;;;;0.60;0.60;;;;;;;1.88;55.32;97018.03;29373;293;63005;-61
2023/04/06 00:50:55;;;;;;;0.60;0.60;;;;;;;1.88;55.38;97023.38;29371;215;64013;-60
2023/04/06 00:51:27;;;;;;;0.60;0.60;;;;;;;1.88;55.31;97013.50;29373;241;63004;-62
2023/04/06 00:51:58;;;;;;;0.60;0.60;;;;;;;1.87;55.80;97017.22;29373;222;63009;-62
2023/04/06 00:52:30;;;;;;;0.60;0.60;;;;;;;1.85;55.40;97019.31;29373;254;63015;-60
2023/04/06 00:53:01;;;;;;;0.60;0.60;;;;;;;1.85;55.72;97013.16;29373;202;63009;-62
2023/04/06 00:53:33;;;;;;;0.60;0.60;;;;;;;1.84;56.23;97011.53;29373;319;63004;-61
2023/04/06 00:54:05;;;;;;;0.60;0.60;;;;;;;1.82;56.45;97013.63;29373;322;63009;-62
2023/04/06 00:54:40;;;;;;;0.60;0.60;;;;;;;1.81;57.36;97023.50;29371;303;64009;-61
2023/04/06 00:55:12;;;;;;;0.60;0.60;;;;;;;1.78;57.20;97023.97;29395;199;63005;-61
2023/04/06 00:55:43;;;;;;;0.60;0.60;;;;;;;1.75;57.64;97019.06;29373;269;63005;-61
2023/04/06 00:56:14;;;;;;;0.60;0.60;;;;;;;1.74;57.37;97020.13;29373;273;63009;-62
2023/04/06 00:56:45;;;;;;;0.60;0.60;;;;;;;1.74;57.54;97033.50;29373;238;63005;-62
2023/04/06 00:57:18;;;;;;;0.60;0.60;;;;;;;1.74;57.59;97030.00;29373;320;63009;-61
2023/04/06 00:57:50;;;;;;;0.60;0.60;;;;;;;1.74;58.00;97027.34;29373;230;63005;-61
2023/04/06 00:58:22;;;;;;;0.60;0.60;;;;;;;1.74;57.92;97025.47;29373;254;63009;-60
2023/04/06 00:58:53;;;;;;;0.60;0.60;;;;;;;1.73;57.43;97015.84;29373;339;63004;-62
2023/04/06 00:59:26;;;;;;;0.60;0.60;;;;;;;1.75;57.44;97023.63;29371;202;64013;-63
2023/04/06 00:59:57;;;;;;;1.08;1.08;;;;;;;1.76;57.03;97023.38;29371;234;64009;-62
2023/04/06 01:00:28;;;;;;;0.60;0.60;;;;;;;1.76;56.68;97019.91;29373;203;63009;-62
2023/04/06 01:01:00;;;;;;;0.60;0.60;;;;;;;1.77;56.64;97016.16;29373;208;63004;-62
2023/04/06 01:01:32;;;;;;;0.60;0.60;;;;;;;1.77;56.75;97021.53;29395;229;63009;-61
2023/04/06 01:02:04;;;;;;;0.60;0.60;;;;;;;1.76;56.82;97025.25;29373;202;63007;-62
2023/04/06 01:02:36;;;;;;;0.68;0.68;;;;;;;1.77;56.61;97010.81;29373;330;63009;-64
2023/04/06 01:03:08;;;;;;;0.60;0.60;;;;;;;1.75;56.77;97020.94;29373;202;63005;-62
2023/04/06 01:03:42;;;;;;;0.70;0.70;;;;;;;1.77;56.75;97022.34;29373;221;63009;-62
2023/04/06 01:04:13;;;;;;;0.60;0.60;;;;;;;1.77;56.48;97011.63;29371;348;64009;-62
2023/04/06 01:04:44;;;;;;;0.60;0.60;;;;;;;1.78;56.76;97015.13;29373;211;63009;-62
2023/04/06 01:05:17;;;;;;;0.60;0.60;;;;;;;1.78;56.56;97017.81;29395;227;63005;-61
2023/04/06 01:05:48;;;;;;;0.60;0.60;;;;;;;1.79;56.53;97011.41;29373;246;63009;-62
2023/04/06 01:06:19;;;;;;;0.60;0.60;;;;;;;1.78;56.23;97010.59;29373;216;63004;-62
2023/04/06 01:06:51;;;;;;;0.62;0.62;;;;;;;1.79;56.31;97014.06;29373;271;63009;-63
2023/04/06 01:07:22;;;;;;;0.60;0.60;;;;;;;1.79;56.32;97012.22;29373;266;63004;-62
2023/04/06 01:07:53;;;;;;;0.60;0.60;;;;;;;1.79;56.56;97020.25;29373;343;63008;-62
2023/04/06 01:08:25;;;;;;;0.60;0.60;;;;;;;1.78;56.50;97013.25;29373;348;63004;-62
2023/04/06 01:08:57;;;;;;;0.68;0.68;;;;;;;1.78;56.36;97017.81;29373;197;63008;-63
2023/04/06 01:09:31;;;;;;;0.60;0.60;;;;;;;1.78;56.48;97010.59;29371;211;64009;-62
2023/04/06 01:10:03;;;;;;;1.25;1.25;;;;;;;1.79;56.37;97014.91;29373;224;63009;-62
2023/04/06 01:10:35;;;;;;;0.60;0.60;;;;;;;1.79;56.42;97009.53;29373;271;63005;-62
2023/04/06 01:11:06;;;;;;;0.60;0.60;;;;;;;1.78;56.36;97007.91;29373;307;63009;-61
2023/04/06 01:11:38;;;;;;;0.60;0.60;;;;;;;1.79;56.30;97011.41;29373;199;63005;-61
2023/04/06 01:12:09;;;;;;;0.60;0.60;;;;;;;1.77;56.47;97003.59;29373;249;63009;-62
2023/04/06 01:12:40;;;;;;;0.60;0.60;;;;;;;1.78;56.36;97013.25;29373;235;63004;-62
2023/04/06 01:13:12;;;;;;;0.73;0.73;;;;;;;1.78;56.56;97013.25;29373;313;63009;-62
2023/04/06 01:13:44;;;;;;;0.60;0.60;;;;;;;1.78;56.19;97009.78;29373;204;63004;-62
2023/04/06 01:14:15;;;;;;;0.62;0.62;;;;;;;1.79;56.36;97006.88;29371;239;64013;-62
2023/04/06 01:14:47;;;;;;;0.60;0.60;;;;;;;1.79;56.02;97009.53;29373;227;63011;-63
2023/04/06 01:15:20;;;;;;;0.60;0.60;;;;;;;1.79;55.91;97009.53;29373;320;63008;-62
2023/04/06 01:15:52;;;;;;;0.60;0.60;;;;;;;1.80;55.91;97005.00;29373;305;63018;-62
2023/04/06 01:16:24;;;;;;;0.70;0.70;;;;;;;1.81;57.02;97007.44;29373;298;63009;-62
2023/04/06 01:16:59;;;;;;;0.60;0.60;;;;;;;1.80;56.74;97013.84;29371;198;64009;-62
2023/04/06 01:17:31;;;;;;;0.60;0.60;;;;;;;1.80;56.48;97011.16;29373;216;63009;-62
2023/04/06 01:18:04;;;;;;;1.48;1.48;;;;;;;1.82;56.30;97002.91;29373;284;63005;-62
2023/04/06 01:18:38;;;;;;;0.60;0.60;;;;;;;1.82;56.53;97011.75;29373;196;63009;-62
2023/04/06 01:19:13;;;;;;;0.60;0.60;;;;;;;1.82;56.12;97006.41;29373;241;63005;-62
2023/04/06 01:19:45;;;;;;;0.60;0.60;;;;;;;1.84;56.13;97004.31;29373;218;63009;-61
2023/04/06 01:20:16;;;;;;;0.60;0.60;;;;;;;1.84;55.82;97006.16;29373;197;63015;-61
2023/04/06 01:20:47;;;;;;;0.60;0.60;;;;;;;1.83;55.83;97000.00;29373;299;63009;-62
2023/04/06 01:21:19;;;;;;;0.60;0.60;;;;;;;1.85;55.80;97003.25;29371;196;64009;-62
2023/04/06 01:21:52;;;;;;;0.60;0.60;;;;;;;1.87;55.77;97011.88;29373;286;63004;-62
2023/04/06 01:22:25;;;;;;;0.60;0.60;;;;;;;1.88;55.77;97008.16;29371;360;64009;-61
2023/04/06 01:22:56;;;;;;;0.50;0.50;;;;;;;1.89;55.71;97003.59;29373;197;63008;-63
2023/04/06 01:23:27;;;;;;;0.60;0.60;;;;;;;1.89;55.58;97009.78;29373;202;63005;-61
2023/04/06 01:23:59;;;;;;;0.60;0.60;;;;;;;1.89;55.52;97004.41;29373;242;63009;-62
2023/04/06 01:24:30;;;;;;;0.60;0.60;;;;;;;1.90;55.45;97000.69;29373;229;63012;-61
2023/04/06 01:25:01;;;;;;;0.60;0.60;;;;;;;1.92;55.41;97006.63;29371;352;64013;-61
2023/04/06 01:25:32;;;;;;;1.50;1.45;;;;;;;1.91;55.33;96998.84;29373;355;63005;-62
2023/04/06 01:26:04;;;;;;;0.60;0.60;;;;;;;1.90;55.73;96997.22;29373;314;63009;-61
2023/04/06 01:26:37;;;;;;;0.62;0.62;;;;;;;1.90;55.58;96997.22;29373;257;63005;-61
2023/04/06 01:27:08;;;;;;;0.70;0.70;;;;;;;1.90;55.45;96997.22;29395;218;63009;-61
2023/04/06 01:27:39;;;;;;;0.60;0.60;;;;;;;1.90;55.42;96995.34;29395;242;63004;-62
2023/04/06 01:28:10;;;;;;;0.60;0.60;;;;;;;1.91;55.52;96996.97;29371;284;64013;-63
2023/04/06 01:28:42;;;;;;;0.60;0.60;;;;;;;1.92;55.25;96992.44;29394;241;64009;-61
2023/04/06 01:29:13;;;;;;;0.60;0.60;;;;;;;1.92;55.16;96992.44;29395;330;63009;-62
2023/04/06 01:29:44;;;;;;;0.70;0.70;;;;;;;1.92;54.94;96987.09;29395;248;63004;-64
2023/04/06 01:30:17;;;;;;;0.60;0.60;;;;;;;1.93;55.13;97000.22;29395;204;63008;-62
2023/04/06 01:30:48;;;;;;;0.60;0.60;;;;;;;1.92;55.67;96997.78;29395;226;63005;-61
2023/04/06 01:31:19;;;;;;;0.60;0.60;;;;;;;1.91;55.65;96990.81;29395;206;63014;-61
2023/04/06 01:31:51;;;;;;;0.60;0.60;;;;;;;1.89;55.96;96999.06;29395;197;63005;-61
2023/04/06 01:32:22;;;;;;;0.60;0.60;;;;;;;1.88;55.89;97000.13;29395;231;63009;-62
2023/04/06 01:32:54;;;;;;;0.60;0.60;;;;;;;1.87;55.82;97000.34;29395;229;63005;-62
2023/04/06 01:33:25;;;;;;;0.60;0.60;;;;;;;1.86;55.74;96999.53;29395;275;63009;-62
2023/04/06 01:33:57;;;;;;;0.60;0.60;;;;;;;1.87;55.57;97001.16;29371;213;64009;-62
2023/04/06 01:34:29;;;;;;;0.60;0.60;;;;;;;1.87;55.66;97001.16;29373;221;63009;-62
2023/04/06 01:35:00;;;;;;;0.60;0.60;;;;;;;1.87;55.64;96998.50;29373;203;63004;-62
2023/04/06 01:35:31;;;;;;;0.60;0.60;;;;;;;1.87;55.57;96995.81;29373;280;63009;-61
2023/04/06 01:36:04;;;;;;;0.70;0.70;;;;;;;1.90;55.25;96995.34;29373;239;63004;-62
2023/04/06 01:36:35;;;;;;;0.60;0.60;;;;;;;1.91;55.12;96999.66;29373;211;63009;-62
2023/04/06 01:37:10;;;;;;;0.60;0.60;;;;;;;1.90;55.34;96991.84;29373;206;63004;-62
2023/04/06 01:37:43;;;;;;;0.68;0.68;;;;;;;1.88;55.49;96994.75;29371;316;64013;-61
2023/04/06 01:38:15;;;;;;;0.60;0.60;;;;;;;1.87;55.39;96995.81;29373;378;63004;-62
2023/04/06 01:38:47;;;;;;;0.60;0.60;;;;;;;1.86;55.50;96999.53;29371;243;64014;-65
2023/04/06 01:39:19;;;;;;;0.60;0.60;;;;;;;1.85;55.53;96997.91;29373;192;63005;-61
2023/04/06 01:39:50;;;;;;;0.60;0.60;;;;;;;1.84;55.64;96993.59;29373;216;63009;-61
2023/04/06 01:40:22;;;;;;;0.60;0.60;;;;;;;1.85;55.31;96991.75;29373;202;63005;-62
2023/04/06 01:40:54;;;;;;;0.60;0.60;;;;;;;1.85;55.38;96987.22;29373;312;63009;-62
2023/04/06 01:41:26;;;;;;;0.60;0.60;;;;;;;1.85;55.39;96995.22;29373;301;63005;-62
2023/04/06 01:41:57;;;;;;;0.60;0.60;;;;;;;1.82;56.05;96997.56;29373;329;63009;-62
2023/04/06 01:42:28;;;;;;;0.60;0.60;;;;;;;1.79;55.83;96990.81;29373;308;63005;-62
2023/04/06 01:42:59;;;;;;;0.60;0.60;;;;;;;1.80;55.89;96994.31;29371;225;64013;-62
2023/04/06 01:43:31;;;;;;;0.60;0.60;;;;;;;1.79;56.03;96996.16;29373;308;63004;-64
2023/04/06 01:44:02;;;;;;;0.60;0.60;;;;;;;1.78;56.09;96991.84;29373;226;63009;-62
2023/04/06 01:44:34;;;;;;;0.60;0.60;;;;;;;1.76;55.84;96991.28;29373;281;63000;-62
2023/04/06 01:45:06;;;;;;;0.60;0.60;;;;;;;1.75;56.13;96986.16;29373;232;63008;-64
2023/04/06 01:45:38;;;;;;;0.60;0.60;;;;;;;1.73;56.16;96994.44;29371;349;64008;-62
2023/04/06 01:46:09;;;;;;;0.50;0.50;;;;;;;1.73;56.16;96989.09;29373;250;63009;-63
2023/04/06 01:46:40;;;;;;;0.60;0.60;;;;;;;1.74;55.82;96993.38;29373;316;63005;-62
2023/04/06 01:47:11;;;;;;;0.52;0.52;;;;;;;1.74;55.71;96990.69;29373;216;63009;-61
2023/04/06 01:47:42;;;;;;;0.60;0.60;;;;;;;1.75;55.96;96983.50;29373;359;63005;-61
2023/04/06 01:48:14;;;;;;;0.60;0.60;;;;;;;1.75;56.16;96989.66;29372;199;63009;-61
2023/04/06 01:48:45;;;;;;;0.60;0.60;;;;;;;1.72;56.38;96990.16;29371;353;64009;-62
2023/04/06 01:49:16;;;;;;;0.60;0.60;;;;;;;1.70;56.35;96992.25;29373;352;63009;-62
2023/04/06 01:49:48;;;;;;;0.60;0.60;;;;;;;1.69;56.56;96987.94;29373;249;63005;-61
2023/04/06 01:50:19;;;;;;;0.60;0.60;;;;;;;1.66;56.69;96986.53;29373;234;63009;-62
2023/04/06 01:50:51;;;;;;;0.60;0.60;;;;;;;1.65;56.56;96986.78;29373;261;63004;-62
2023/04/06 01:51:22;;;;;;;0.68;0.68;;;;;;;1.64;56.70;96993.16;29371;208;64013;-62
2023/04/06 01:51:54;;;;;;;0.60;0.60;;;;;;;1.62;56.67;96989.91;29373;252;63004;-62
2023/04/06 01:52:27;;;;;;;0.60;0.60;;;;;;;1.61;56.66;96988.28;29373;322;63009;-61
2023/04/06 01:52:58;;;;;;;0.60;0.60;;;;;;;1.60;56.60;96989.34;29373;374;63004;-60
2023/04/06 01:53:29;;;;;;;0.60;0.60;;;;;;;1.58;56.72;96980.72;29373;325;63009;-61
2023/04/06 01:54:01;;;;;;;0.60;0.60;;;;;;;1.56;56.98;96990.84;29373;311;63015;-61
2023/04/06 01:54:32;;;;;;;0.60;0.60;;;;;;;1.54;57.21;96991.06;29373;236;63009;-61
2023/04/06 01:55:05;;;;;;;0.60;0.60;;;;;;;1.53;57.35;96993.97;29373;320;63005;-62
2023/04/06 01:55:36;;;;;;;0.60;0.60;;;;;;;1.52;57.27;96989.69;29373;239;63009;-60
2023/04/06 01:56:08;;;;;;;0.60;0.60;;;;;;;1.50;57.27;96989.09;29373;285;63005;-61
2023/04/06 01:56:40;;;;;;;0.60;0.60;;;;;;;1.48;57.28;96992.00;29371;281;64013;-60
2023/04/06 01:57:11;;;;;;;0.60;0.60;;;;;;;1.47;57.78;96993.03;29373;271;63012;-62
2023/04/06 01:57:42;;;;;;;0.60;0.60;;;;;;;1.44;58.33;96995.38;29373;284;63009;-62
2023/04/06 01:58:14;;;;;;;0.60;0.60;;;;;;;1.43;58.26;96988.38;29373;202;63004;-62
2023/04/06 01:58:46;;;;;;;0.60;0.60;;;;;;;1.41;58.35;96990.47;29373;252;63009;-61
2023/04/06 01:59:17;;;;;;;0.90;0.90;;;;;;;1.40;58.15;96992.34;29373;218;63004;-61
2023/04/06 01:59:48;;;;;;;0.60;0.60;;;;;;;1.40;58.16;96989.66;29371;208;64013;-61
2023/04/06 02:00:19;;;;;;;0.60;0.60;;;;;;;1.39;58.55;96997.94;29373;292;63005;-61
2023/04/06 02:00:51;;;;;;;0.90;0.90;;;;;;;1.38;58.79;96996.31;29373;204;63009;-62
2023/04/06 02:01:22;;;;;;;0.60;0.60;;;;;;;1.37;58.53;96995.50;29371;325;64009;-60
2023/04/06 02:01:54;;;;;;;2.65;2.55;;;;;;;1.36;59.04;96995.75;29373;230;63009;-60
2023/04/06 02:02:26;;;;;;;0.60;0.60;;;;;;;1.35;58.88;96997.59;29373;295;63005;-62
2023/04/06 02:02:57;;;;;;;0.60;0.60;;;;;;;1.33;58.90;96989.81;29373;248;63009;-62
2023/04/06 02:03:28;;;;;;;0.70;0.70;;;;;;;1.32;58.56;96988.19;29373;329;63005;-62
2023/04/06 02:03:59;;;;;;;0.60;0.60;;;;;;;1.32;58.37;96992.72;29373;280;63009;-64
2023/04/06 02:04:31;;;;;;;0.60;0.60;;;;;;;1.31;58.67;96994.56;29373;238;63004;-61
2023/04/06 02:05:02;;;;;;;0.60;0.60;;;;;;;1.30;58.50;96984.91;29373;283;63009;-61
2023/04/06 02:05:40;;;;;;;4.20;4.05;;;;;;;1.29;58.59;96985.97;29373;308;63004;-62
2023/04/06 02:06:11;;;;;;;0.70;0.70;;;;;;;1.30;58.70;96990.28;29371;343;64013;-62
2023/04/06 02:06:43;;;;;;;0.90;0.90;;;;;;;1.30;58.40;96989.44;29373;252;63004;-60
2023/04/06 02:07:14;;;;;;;0.60;0.60;;;;;;;1.29;58.18;96983.28;29373;214;63008;-64
2023/04/06 02:07:46;;;;;;;0.52;0.52;;;;;;;1.29;58.27;96993.97;29373;199;63005;-62
2023/04/06 02:08:17;;;;;;;0.60;0.60;;;;;;;1.31;57.97;96985.72;29373;208;63009;-62
2023/04/06 02:08:48;;;;;;;0.60;0.60;;;;;;;1.32;57.83;96988.19;29371;298;64009;-61
2023/04/06 02:09:20;;;;;;;0.60;0.60;;;;;;;1.32;57.56;96982.81;29373;261;63009;-62
2023/04/06 02:09:55;;;;;;;1.33;1.33;;;;;;;1.33;57.31;96981.78;29371;340;64009;-62
2023/04/06 02:10:26;;;;;;;0.60;0.60;;;;;;;1.35;57.54;96986.91;29373;299;63009;-62
2023/04/06 02:10:58;;;;;;;0.60;0.60;;;;;;;1.36;57.62;96987.72;29372;297;63005;-62
2023/04/06 02:11:30;;;;;;;0.70;0.70;;;;;;;1.38;57.26;96988.31;29373;234;63009;-64
2023/04/06 02:12:01;;;;;;;0.60;0.60;;;;;;;1.38;57.44;96990.97;29373;223;63004;-64
2023/04/06 02:12:33;;;;;;;0.70;0.70;;;;;;;1.38;57.27;96982.94;29371;333;64013;-62
2023/04/06 02:13:04;;;;;;;0.60;0.60;;;;;;;1.39;57.15;96987.25;29372;212;63004;-61
2023/04/06 02:13:35;;;;;;;0.60;0.60;;;;;;;1.39;57.43;96981.91;29373;295;63013;-61
2023/04/06 02:14:06;;;;;;;0.60;0.60;;;;;;;1.39;57.68;96981.91;29373;298;63004;-62
2023/04/06 02:14:37;;;;;;;0.60;0.60;;;;;;;1.38;57.94;96985.63;29371;217;64013;-63
2023/04/06 02:15:10;;;;;;;0.60;0.60;;;;;;;1.38;58.16;96991.78;29373;226;63004;-62
2023/04/06 02:15:41;;;;;;;0.60;0.60;;;;;;;1.38;57.94;96985.63;29373;295;63009;-61
2023/04/06 02:16:15;;;;;;;0.70;0.70;;;;;;;1.37;57.85;96979.47;29371;278;64009;-61
2023/04/06 02:16:47;;;;;;;0.60;0.60;;;;;;;1.38;57.64;96982.94;29373;202;63009;-61
2023/04/06 02:17:18;;;;;;;0.60;0.60;;;;;;;1.40;57.77;96986.19;29373;342;63000;-61
2023/04/06 02:17:49;;;;;;;0.60;0.60;;;;;;;1.39;57.70;96988.03;29371;197;64013;-62
2023/04/06 02:18:21;;;;;;;0.60;0.60;;;;;;;1.38;57.44;96986.44;29373;293;63014;-62
2023/04/06 02:18:52;;;;;;;0.60;0.60;;;;;;;1.39;57.33;96987.25;29373;333;63009;-62
2023/04/06 02:19:23;;;;;;;0.60;0.60;;;;;;;1.40;57.75;96988.84;29373;252;63000;-61
2023/04/06 02:19:55;;;;;;;0.70;0.70;;;;;;;1.40;57.71;96983.50;29373;203;63009;-61
2023/04/06 02:20:26;;;;;;;0.60;0.60;;;;;;;1.39;57.54;96977.34;29373;219;63004;-61
2023/04/06 02:20:57;;;;;;;0.68;0.68;;;;;;;1.40;57.34;96978.16;29373;204;63009;-62
2023/04/06 02:21:31;;;;;;;0.60;0.60;;;;;;;1.41;57.20;96974.44;29373;286;63004;-61
2023/04/06 02:22:02;;;;;;;0.60;0.60;;;;;;;1.42;57.20;96976.06;29373;209;63008;-61
2023/04/06 02:22:35;;;;;;;0.60;0.60;;;;;;;1.43;57.30;96972.34;29373;205;63004;-61
2023/04/06 02:23:07;;;;;;;0.60;0.60;;;;;;;1.45;57.17;96980.94;29371;239;64014;-62
2023/04/06 02:23:38;;;;;;;0.60;0.60;;;;;;;1.45;57.01;96981.75;29373;218;63005;-62
2023/04/06 02:24:09;;;;;;;0.60;0.60;;;;;;;1.48;57.03;96977.81;29373;306;63009;-62
2023/04/06 02:24:41;;;;;;;0.60;0.60;;;;;;;1.47;56.99;96979.69;29373;267;63005;-62
2023/04/06 02:25:12;;;;;;;0.60;0.60;;;;;;;1.48;56.97;96975.97;29371;344;64013;-60
2023/04/06 02:25:44;;;;;;;0.60;0.60;;;;;;;1.48;56.97;96981.31;29373;235;63005;-61
2023/04/06 02:26:15;;;;;;;0.60;0.60;;;;;;;1.47;56.80;96974.31;29373;320;63009;-62
2023/04/06 02:26:46;;;;;;;0.60;0.60;;;;;;;1.47;57.05;96981.53;29373;232;63009;-62
2023/04/06 02:27:17;;;;;;;0.60;0.60;;;;;;;1.46;56.85;96977.22;29373;286;63009;-61
2023/04/06 02:27:49;;;;;;;0.60;0.60;;;;;;;1.46;56.80;96966.53;29373;271;63004;-62
2023/04/06 02:28:20;;;;;;;0.60;0.60;;;;;;;1.46;57.22;96974.56;29373;224;63009;-62
2023/04/06 02:28:51;;;;;;;0.60;0.60;;;;;;;1.45;57.04;96975.59;29373;347;63004;-63
2023/04/06 02:29:23;;;;;;;0.60;0.60;;;;;;;1.45;57.17;96965.72;29371;262;64013;-61
2023/04/06 02:29:54;;;;;;;0.60;0.60;;;;;;;1.44;57.07;96974.78;29373;226;63004;-60
2023/04/06 02:30:25;;;;;;;0.60;0.60;;;;;;;1.46;57.18;96979.91;29371;320;64014;-62
2023/04/06 02:30:57;;;;;;;0.70;0.70;;;;;;;1.45;57.27;96981.75;29373;214;63005;-61
2023/04/06 02:31:29;;;;;;;0.60;0.60;;;;;;;1.45;57.48;96978.28;29373;220;63009;-62
2023/04/06 02:32:00;;;;;;;0.60;0.60;;;;;;;1.44;57.47;96979.31;29373;199;63005;-62
2023/04/06 02:32:31;;;;;;;0.60;0.60;;;;;;;1.44;57.58;96982.00;29371;275;64013;-62
2023/04/06 02:33:03;;;;;;;0.68;0.68;;;;;;;1.43;57.52;96977.69;29373;224;63005;-64